Map

Track Data

SID SEASON NUMBER BASIN SUBBASIN NAME ISO_TIME NATURE LAT LON WMO_WIND WMO_PRES WMO_AGENCY TRACK_TYPE DIST2LAND LANDFALL IFLAG USA_AGENCY USA_ATCF_ID USA_LAT USA_LON USA_RECORD USA_STATUS USA_WIND USA_PRES USA_SSHS USA_R34_NE USA_R34_SE USA_R34_SW USA_R34_NW USA_R50_NE USA_R50_SE USA_R50_SW USA_R50_NW USA_R64_NE USA_R64_SE USA_R64_SW USA_R64_NW USA_POCI USA_ROCI USA_RMW USA_EYE TOKYO_LAT TOKYO_LON TOKYO_GRADE TOKYO_WIND TOKYO_PRES TOKYO_R50_DIR TOKYO_R50_LONG TOKYO_R50_SHORT TOKYO_R30_DIR TOKYO_R30_LONG TOKYO_R30_SHORT TOKYO_LAND CMA_LAT CMA_LON CMA_CAT CMA_WIND CMA_PRES HKO_LAT HKO_LON HKO_CAT HKO_WIND HKO_PRES NEWDELHI_LAT NEWDELHI_LON NEWDELHI_GRADE NEWDELHI_WIND NEWDELHI_PRES NEWDELHI_CI NEWDELHI_DP NEWDELHI_POCI REUNION_LAT REUNION_LON REUNION_TYPE REUNION_WIND REUNION_PRES REUNION_TNUM REUNION_CI REUNION_RMW REUNION_R34_NE REUNION_R34_SE REUNION_R34_SW REUNION_R34_NW REUNION_R50_NE REUNION_R50_SE REUNION_R50_SW REUNION_R50_NW REUNION_R64_NE REUNION_R64_SE REUNION_R64_SW REUNION_R64_NW BOM_LAT BOM_LON BOM_TYPE BOM_WIND BOM_PRES BOM_TNUM BOM_CI BOM_RMW BOM_R34_NE BOM_R34_SE BOM_R34_SW BOM_R34_NW BOM_R50_NE BOM_R50_SE BOM_R50_SW BOM_R50_NW BOM_R64_NE BOM_R64_SE BOM_R64_SW BOM_R64_NW BOM_ROCI BOM_POCI BOM_EYE BOM_POS_METHOD BOM_PRES_METHOD NADI_LAT NADI_LON NADI_CAT NADI_WIND NADI_PRES WELLINGTON_LAT WELLINGTON_LON WELLINGTON_WIND WELLINGTON_PRES DS824_LAT DS824_LON DS824_STAGE DS824_WIND DS824_PRES TD9636_LAT TD9636_LON TD9636_STAGE TD9636_WIND TD9636_PRES TD9635_LAT TD9635_LON TD9635_WIND TD9635_PRES TD9635_ROCI NEUMANN_LAT NEUMANN_LON NEUMANN_CLASS NEUMANN_WIND NEUMANN_PRES MLC_LAT MLC_LON MLC_CLASS MLC_WIND MLC_PRES USA_GUST BOM_GUST BOM_GUST_PER REUNION_GUST REUNION_GUST_PER USA_SEAHGT USA_SEARAD_NE USA_SEARAD_SE USA_SEARAD_SW USA_SEARAD_NW STORM_SPEED STORM_DIR
1980338N09085 1980 104 NI BB NOT_NAMED 1980-12-03 00:00:00 TS 9.36667 84.6667 main 375 360 O________OO___ jtwc_io IO041980 9.40000 84.6000 -1 9.40000 84.6000 TC 25 9.30000 84.8000 1 5 315
1980338N09085 1980 104 NI BB NOT_NAMED 1980-12-03 03:00:00 TS 9.52670 84.4989 main 360 350 P________PP___ IO041980 9.55252 84.4475 -1 9.55252 84.4475 TC 25 9.47507 84.6017 1 5 314
1980338N09085 1980 104 NI BB NOT_NAMED 1980-12-03 06:00:00 TS 9.68336 84.3342 main 350 345 O________OP___ jtwc_io IO041980 9.70000 84.3000 -1 9.70000 84.3000 TC 25 9.65007 84.4027 1 4 314
1980338N09085 1980 104 NI BB NOT_NAMED 1980-12-03 09:00:00 TS 9.83667 84.1724 main 345 337 P________PP___ IO041980 9.84248 84.1575 -1 9.84248 84.1575 TC 25 9.82504 84.2023 1 5 314
1980338N09085 1980 104 NI BB NOT_NAMED 1980-12-03 12:00:00 TS 10.0000 84.0000 main 337 325 O________OO___ jtwc_io IO041980 10.0000 84.0000 -1 10.0000 84.0000 TC 25 10.0000 84.0000 1 5 314
1980338N09085 1980 104 NI BB NOT_NAMED 1980-12-03 15:00:00 TS 10.1872 83.8036 main 331 318 P________PP___ IO041980 10.1925 83.8075 -1 10.1925 83.8075 TC 25 10.1765 83.7958 1 6 314
1980338N09085 1980 104 NI BB NOT_NAMED 1980-12-03 18:00:00 TS 10.3875 83.5974 main 325 314 O________OP___ jtwc_io IO041980 10.4000 83.6000 -1 10.4000 83.6000 TC 25 10.3625 83.5923 1 6 315
1980338N09085 1980 104 NI BB NOT_NAMED 1980-12-03 21:00:00 TS 10.5841 83.3975 main 320 306 P________PP___ IO041980 10.5925 83.4000 -1 10.5925 83.4000 TC 25 10.5672 83.3927 1 6 317
1980338N09085 1980 104 NI BB NOT_NAMED 1980-12-04 00:00:00 TS 10.8000 83.2000 main 312 307 O________OO___ jtwc_io IO041980 10.8000 83.2000 -1 10.8000 83.2000 TC 25 10.8000 83.2000 1 6 319
1980338N09085 1980 104 NI BB NOT_NAMED 1980-12-04 03:00:00 TS 11.0489 82.9888 main 307 305 P________PP___ IO041980 11.0275 82.9925 -1 11.0275 82.9925 TC 25 11.0916 82.9815 1 7 323
1980338N09085 1980 104 NI BB NOT_NAMED 1980-12-04 06:00:00 TS 11.3359 82.7918 main 313 276 O________OP___ jtwc_io IO041980 11.3000 82.8000 -1 11.3000 82.8000 TC 25 11.4076 82.7754 1 7 330
1980338N09085 1980 104 NI BB NOT_NAMED 1980-12-04 09:00:00 TS 11.6782 82.6155 main 276 256 P________PP___ IO041980 11.6575 82.6201 -1 11.6575 82.6201 TC 30 11.7197 82.6065 1 7 337
1980338N09085 1980 104 NI BB NOT_NAMED 1980-12-04 12:00:00 TS 12.0000 82.5000 main 256 252 O________OO___ jtwc_io IO041980 12.0000 82.5000 -1 12.0000 82.5000 TC 35 12.0000 82.5000 2 6 344
1980338N09085 1980 104 NI BB NOT_NAMED 1980-12-04 15:00:00 TS 12.2172 82.4569 main 252 250 P________PP___ IO041980 12.2225 82.4550 -1 12.2225 82.4550 TC 35 12.2067 82.4608 2 4 357
1980338N09085 1980 104 NI BB NOT_NAMED 1980-12-04 18:00:00 TS 12.3933 82.4958 main 250 249 O________OP___ jtwc_io IO041980 12.4000 82.5000 -1 12.4000 82.5000 TC 35 12.3798 82.4874 2 4 22
1980338N09085 1980 104 NI BB NOT_NAMED 1980-12-04 21:00:00 TS 12.5793 82.6034 main 260 260 P________PP___ IO041980 12.6000 82.6200 -1 12.6000 82.6200 TC 35 12.5380 82.5703 2 5 35
1980338N09085 1980 104 NI BB NOT_NAMED 1980-12-05 00:00:00 TS 12.7667 82.7667 main 276 274 O________OO___ jtwc_io IO041980 12.8000 82.8000 -1 12.8000 82.8000 TC 35 12.7000 82.7000 2 5 41
1980338N09085 1980 104 NI BB NOT_NAMED 1980-12-05 03:00:00 TS 12.9761 82.9590 main 294 293 P________PP___ IO041980 13.0075 83.0000 -1 13.0075 83.0000 TC 35 12.9133 82.8769 2 6 43
1980338N09085 1980 104 NI BB NOT_NAMED 1980-12-05 06:00:00 TS 13.1767 83.1640 main 314 314 O________OP___ jtwc_io IO041980 13.2000 83.2000 -1 13.2000 83.2000 TC 35 13.1302 83.0921 2 5 45
1980338N09085 1980 104 NI BB NOT_NAMED 1980-12-05 09:00:00 TS 13.3540 83.3471 main 324 324 P________PP___ IO041980 13.3650 83.3650 -1 13.3650 83.3650 TC 35 13.3320 83.3113 2 5 45
1980338N09085 1980 104 NI BB NOT_NAMED 1980-12-05 12:00:00 TS 13.5000 83.5000 main 346 346 O________OO___ jtwc_io IO041980 13.5000 83.5000 -1 13.5000 83.5000 TC 35 13.5000 83.5000 2 3 45
1980338N09085 1980 104 NI BB NOT_NAMED 1980-12-05 15:00:00 TS 13.5991 83.5966 main 356 352 P________PP___ IO041980 13.6075 83.6075 -1 13.6075 83.6075 TC 35 13.5823 83.5748 2 2 43
1980338N09085 1980 104 NI BB NOT_NAMED 1980-12-05 18:00:00 TS 13.6782 83.6736 main 357 347 O________OP___ jtwc_io IO041980 13.7000 83.7000 -1 13.7000 83.7000 TC 35 13.6346 83.6207 2 2 43
1980338N09085 1980 104 NI BB NOT_NAMED 1980-12-05 21:00:00 TS 13.7599 83.7504 main 352 342 P________PP___ IO041980 13.7925 83.7850 -1 13.7925 83.7850 TC 35 13.6947 83.6812 2 3 45
1980338N09085 1980 104 NI BB NOT_NAMED 1980-12-06 00:00:00 TS 13.8667 83.8667 main 347 343 O________OO___ jtwc_io IO041980 13.9000 83.9000 -1 13.9000 83.9000 TC 35 13.8000 83.8000 2 4 49
1980338N09085 1980 104 NI BB NOT_NAMED 1980-12-06 03:00:00 TS 14.0187 84.0601 main 349 337 P________PP___ IO041980 14.0199 84.0626 -1 14.0199 84.0626 TC 30 14.0163 84.0551 2 6 51
1980338N09085 1980 104 NI BB NOT_NAMED 1980-12-06 06:00:00 TS 14.2260 84.3231 main 343 340 O________OP___ jtwc_io IO041980 14.2000 84.3000 -1 14.2000 84.3000 TC 25 14.2780 84.3692 2 8 50
1980338N09085 1980 104 NI BB NOT_NAMED 1980-12-06 09:00:00 TS 14.5170 84.6661 main 348 340 P________PP___ IO041980 14.5001 84.6498 -1 14.5001 84.6498 TC 25 14.5507 84.6988 2 9 49
1980338N09085 1980 104 NI BB NOT_NAMED 1980-12-06 12:00:00 TS 14.8000 85.0000 main 352 352 O________OO___ jtwc_io IO041980 14.8000 85.0000 -1 14.8000 85.0000 TC 25 14.8000 85.0000 1 7 50
1980338N09085 1980 104 NI BB NOT_NAMED 1980-12-06 15:00:00 TS 14.9694 85.2162 main 358 358 P________PP___ IO041980 14.9649 85.2227 -1 14.9649 85.2227 TC 25 14.9785 85.2032 1 5 51
1980338N09085 1980 104 NI BB NOT_NAMED 1980-12-06 18:00:00 TS 15.1099 85.3910 main 365 355 O________OP___ jtwc_io IO041980 15.1000 85.4000 -1 15.1000 85.4000 TC 25 15.1296 85.3730 1 5 47
1980338N09085 1980 104 NI BB NOT_NAMED 1980-12-06 21:00:00 TS 15.2937 85.5771 main 363 355 P________PP___ IO041980 15.3075 85.6000 -1 15.3075 85.6000 TC 25 15.2660 85.5313 1 5 45
1980338N09085 1980 104 NI BB NOT_NAMED 1980-12-07 00:00:00 TS 15.4667 85.7667 main 361 357 O________OO___ jtwc_io IO041980 15.5000 85.8000 -1 15.5000 85.8000 TC 25 15.4000 85.7000 1 5 52
1980338N09085 1980 104 NI BB NOT_NAMED 1980-12-07 03:00:00 TS 15.5855 85.9655 main 363 360 P________PP___ IO041980 15.6075 86.0001 -1 15.6075 86.0001 TC 25 15.5415 85.8962 1 5 60
1980338N09085 1980 104 NI BB NOT_NAMED 1980-12-07 06:00:00 TS 15.6968 86.1723 main 366 364 O________OP___ jtwc_io IO041980 15.7000 86.2000 -1 15.7000 86.2000 TC 25 15.6904 86.1170 1 5 58
1980338N09085 1980 104 NI BB NOT_NAMED 1980-12-07 09:00:00 TS 15.8380 86.3847 main 371 362 P________PP___ IO041980 15.8350 86.3999 -1 15.8350 86.3999 TC 25 15.8441 86.3543 1 5 54
1980338N09085 1980 104 NI BB NOT_NAMED 1980-12-07 12:00:00 TS 16.0000 86.6000 main 369 O________OO___ jtwc_io IO041980 16.0000 86.6000 -1 16.0000 86.6000 TC 25 16.0000 86.6000 1 5 52

About IBTrACS Database

This database is a web-friendly format of International Best Track Archive for Climate Stewardship (IBTrACS), a global best track data archive curated by NOAA dating back to 1842.

Updated: 2021-12-03